sensor_id;sensor_type;location;lat;lon;timestamp;P1;durP1;ratioP1;P2;durP2;ratioP2
16512;SDS011;8369;48.030;11.598;2023-04-24T00:01:02;1.07;;;1.00;;
16512;SDS011;8369;48.030;11.598;2023-04-24T00:03:28;1.20;;;1.00;;
16512;SDS011;8369;48.030;11.598;2023-04-24T00:05:55;1.10;;;1.00;;
16512;SDS011;8369;48.030;11.598;2023-04-24T00:08:21;1.00;;;0.97;;
16512;SDS011;8369;48.030;11.598;2023-04-24T00:10:48;2.80;;;1.00;;
16512;SDS011;8369;48.030;11.598;2023-04-24T00:13:15;1.43;;;1.33;;
16512;SDS011;8369;48.030;11.598;2023-04-24T00:15:41;2.07;;;1.40;;
16512;SDS011;8369;48.030;11.598;2023-04-24T00:18:07;1.13;;;1.03;;
16512;SDS011;8369;48.030;11.598;2023-04-24T00:24:15;1.10;;;1.00;;
16512;SDS011;8369;48.030;11.598;2023-04-24T00:26:41;0.90;;;0.90;;
16512;SDS011;8369;48.030;11.598;2023-04-24T00:29:08;0.90;;;0.90;;
16512;SDS011;8369;48.030;11.598;2023-04-24T00:31:34;1.00;;;1.00;;
16512;SDS011;8369;48.030;11.598;2023-04-24T00:34:01;0.90;;;0.80;;
16512;SDS011;8369;48.030;11.598;2023-04-24T00:36:27;0.97;;;0.97;;
16512;SDS011;8369;48.030;11.598;2023-04-24T00:38:54;3.03;;;0.80;;
16512;SDS011;8369;48.030;11.598;2023-04-24T00:41:21;0.83;;;0.83;;
16512;SDS011;8369;48.030;11.598;2023-04-24T00:43:47;1.10;;;1.00;;
16512;SDS011;8369;48.030;11.598;2023-04-24T00:46:14;0.80;;;0.80;;
16512;SDS011;8369;48.030;11.598;2023-04-24T00:48:41;1.23;;;0.73;;
16512;SDS011;8369;48.030;11.598;2023-04-24T00:51:08;0.60;;;0.60;;
16512;SDS011;8369;48.030;11.598;2023-04-24T00:53:34;1.13;;;1.00;;
16512;SDS011;8369;48.030;11.598;2023-04-24T00:56:01;1.10;;;1.00;;
16512;SDS011;8369;48.030;11.598;2023-04-24T00:58:28;0.70;;;0.70;;
16512;SDS011;8369;48.030;11.598;2023-04-24T01:00:56;0.70;;;0.70;;
16512;SDS011;8369;48.030;11.598;2023-04-24T01:03:24;3.63;;;0.90;;
16512;SDS011;8369;48.030;11.598;2023-04-24T01:05:54;0.97;;;0.77;;
16512;SDS011;8369;48.030;11.598;2023-04-24T01:08:23;1.97;;;0.77;;
16512;SDS011;8369;48.030;11.598;2023-04-24T01:10:52;0.70;;;0.70;;
16512;SDS011;8369;48.030;11.598;2023-04-24T01:13:19;0.67;;;0.60;;
16512;SDS011;8369;48.030;11.598;2023-04-24T01:15:46;0.83;;;0.60;;
16512;SDS011;8369;48.030;11.598;2023-04-24T01:18:13;2.33;;;0.80;;
16512;SDS011;8369;48.030;11.598;2023-04-24T01:20:41;0.60;;;0.60;;
16512;SDS011;8369;48.030;11.598;2023-04-24T01:23:09;1.33;;;0.70;;
16512;SDS011;8369;48.030;11.598;2023-04-24T01:25:36;0.93;;;0.77;;
16512;SDS011;8369;48.030;11.598;2023-04-24T01:28:03;0.73;;;0.50;;
16512;SDS011;8369;48.030;11.598;2023-04-24T01:30:31;5.67;;;3.43;;
16512;SDS011;8369;48.030;11.598;2023-04-24T01:32:58;6.80;;;3.83;;
16512;SDS011;8369;48.030;11.598;2023-04-24T01:35:25;2.87;;;1.53;;
16512;SDS011;8369;48.030;11.598;2023-04-24T01:37:52;0.73;;;0.73;;
16512;SDS011;8369;48.030;11.598;2023-04-24T01:40:20;0.70;;;0.70;;
16512;SDS011;8369;48.030;11.598;2023-04-24T01:42:47;0.60;;;0.60;;
16512;SDS011;8369;48.030;11.598;2023-04-24T01:45:14;0.60;;;0.60;;
16512;SDS011;8369;48.030;11.598;2023-04-24T01:47:41;0.70;;;0.70;;
16512;SDS011;8369;48.030;11.598;2023-04-24T01:50:07;1.13;;;0.60;;
16512;SDS011;8369;48.030;11.598;2023-04-24T01:52:34;0.70;;;0.70;;
16512;SDS011;8369;48.030;11.598;2023-04-24T01:55:01;0.67;;;0.60;;
16512;SDS011;8369;48.030;11.598;2023-04-24T01:57:30;0.80;;;0.80;;
16512;SDS011;8369;48.030;11.598;2023-04-24T01:59:58;0.60;;;0.60;;
16512;SDS011;8369;48.030;11.598;2023-04-24T02:02:24;0.63;;;0.63;;
16512;SDS011;8369;48.030;11.598;2023-04-24T02:04:53;0.80;;;0.80;;
16512;SDS011;8369;48.030;11.598;2023-04-24T02:07:20;0.70;;;0.70;;
16512;SDS011;8369;48.030;11.598;2023-04-24T02:09:46;0.60;;;0.60;;
16512;SDS011;8369;48.030;11.598;2023-04-24T02:12:14;0.80;;;0.80;;
16512;SDS011;8369;48.030;11.598;2023-04-24T02:14:42;0.70;;;0.70;;
16512;SDS011;8369;48.030;11.598;2023-04-24T02:17:09;0.60;;;0.60;;
16512;SDS011;8369;48.030;11.598;2023-04-24T02:19:37;0.60;;;0.60;;
16512;SDS011;8369;48.030;11.598;2023-04-24T02:22:05;1.43;;;0.70;;
16512;SDS011;8369;48.030;11.598;2023-04-24T02:24:32;0.60;;;0.60;;
16512;SDS011;8369;48.030;11.598;2023-04-24T02:26:58;0.97;;;0.80;;
16512;SDS011;8369;48.030;11.598;2023-04-24T02:29:25;1.70;;;0.80;;
16512;SDS011;8369;48.030;11.598;2023-04-24T02:31:52;0.60;;;0.50;;
16512;SDS011;8369;48.030;11.598;2023-04-24T02:34:19;0.60;;;0.60;;
16512;SDS011;8369;48.030;11.598;2023-04-24T02:36:46;0.70;;;0.70;;
16512;SDS011;8369;48.030;11.598;2023-04-24T02:39:12;0.50;;;0.50;;
16512;SDS011;8369;48.030;11.598;2023-04-24T02:41:39;0.87;;;0.70;;
16512;SDS011;8369;48.030;11.598;2023-04-24T02:44:06;0.53;;;0.50;;
16512;SDS011;8369;48.030;11.598;2023-04-24T02:46:32;0.70;;;0.70;;
16512;SDS011;8369;48.030;11.598;2023-04-24T02:48:59;0.93;;;0.60;;
16512;SDS011;8369;48.030;11.598;2023-04-24T02:51:25;0.50;;;0.50;;
16512;SDS011;8369;48.030;11.598;2023-04-24T02:53:52;0.93;;;0.87;;
16512;SDS011;8369;48.030;11.598;2023-04-24T02:56:19;0.80;;;0.80;;
16512;SDS011;8369;48.030;11.598;2023-04-24T02:58:46;0.60;;;0.60;;
16512;SDS011;8369;48.030;11.598;2023-04-24T03:01:13;0.80;;;0.80;;
16512;SDS011;8369;48.030;11.598;2023-04-24T03:03:41;0.83;;;0.80;;
16512;SDS011;8369;48.030;11.598;2023-04-24T03:06:07;0.70;;;0.70;;
16512;SDS011;8369;48.030;11.598;2023-04-24T03:08:34;0.80;;;0.80;;
16512;SDS011;8369;48.030;11.598;2023-04-24T03:11:01;1.67;;;1.20;;
16512;SDS011;8369;48.030;11.598;2023-04-24T03:13:27;1.00;;;0.90;;
16512;SDS011;8369;48.030;11.598;2023-04-24T03:15:55;0.70;;;0.70;;
16512;SDS011;8369;48.030;11.598;2023-04-24T03:18:21;0.60;;;0.60;;
16512;SDS011;8369;48.030;11.598;2023-04-24T03:20:47;0.70;;;0.70;;
16512;SDS011;8369;48.030;11.598;2023-04-24T03:23:15;1.00;;;0.90;;
16512;SDS011;8369;48.030;11.598;2023-04-24T03:25:41;0.80;;;0.80;;
16512;SDS011;8369;48.030;11.598;2023-04-24T03:28:09;1.07;;;0.90;;
16512;SDS011;8369;48.030;11.598;2023-04-24T03:30:37;1.87;;;0.90;;
16512;SDS011;8369;48.030;11.598;2023-04-24T03:33:04;0.70;;;0.70;;
16512;SDS011;8369;48.030;11.598;2023-04-24T03:35:32;0.70;;;0.70;;
16512;SDS011;8369;48.030;11.598;2023-04-24T03:37:59;0.80;;;0.80;;
16512;SDS011;8369;48.030;11.598;2023-04-24T03:40:27;1.13;;;1.03;;
16512;SDS011;8369;48.030;11.598;2023-04-24T03:42:55;0.97;;;0.70;;
16512;SDS011;8369;48.030;11.598;2023-04-24T03:45:22;2.97;;;0.83;;
16512;SDS011;8369;48.030;11.598;2023-04-24T03:47:49;0.80;;;0.80;;
16512;SDS011;8369;48.030;11.598;2023-04-24T03:50:16;1.73;;;1.13;;
16512;SDS011;8369;48.030;11.598;2023-04-24T03:52:43;1.20;;;1.10;;
16512;SDS011;8369;48.030;11.598;2023-04-24T03:55:10;1.70;;;1.20;;
16512;SDS011;8369;48.030;11.598;2023-04-24T03:57:40;0.83;;;0.67;;
16512;SDS011;8369;48.030;11.598;2023-04-24T04:00:06;0.80;;;0.80;;
16512;SDS011;8369;48.030;11.598;2023-04-24T04:02:35;0.70;;;0.70;;
16512;SDS011;8369;48.030;11.598;2023-04-24T04:05:02;0.77;;;0.77;;
16512;SDS011;8369;48.030;11.598;2023-04-24T04:07:28;1.00;;;0.93;;
16512;SDS011;8369;48.030;11.598;2023-04-24T04:09:56;1.00;;;0.90;;
16512;SDS011;8369;48.030;11.598;2023-04-24T04:12:23;2.60;;;1.00;;
16512;SDS011;8369;48.030;11.598;2023-04-24T04:14:50;0.87;;;0.87;;
16512;SDS011;8369;48.030;11.598;2023-04-24T04:17:17;0.80;;;0.80;;
16512;SDS011;8369;48.030;11.598;2023-04-24T04:19:44;0.60;;;0.60;;
16512;SDS011;8369;48.030;11.598;2023-04-24T04:22:11;0.90;;;0.90;;
16512;SDS011;8369;48.030;11.598;2023-04-24T04:24:39;0.87;;;0.87;;
16512;SDS011;8369;48.030;11.598;2023-04-24T04:27:06;2.03;;;0.80;;
16512;SDS011;8369;48.030;11.598;2023-04-24T04:29:33;0.80;;;0.80;;
16512;SDS011;8369;48.030;11.598;2023-04-24T04:32:01;0.90;;;0.90;;
16512;SDS011;8369;48.030;11.598;2023-04-24T04:34:28;0.90;;;0.90;;
16512;SDS011;8369;48.030;11.598;2023-04-24T04:36:56;2.10;;;1.10;;
16512;SDS011;8369;48.030;11.598;2023-04-24T04:39:27;1.20;;;0.90;;
16512;SDS011;8369;48.030;11.598;2023-04-24T04:41:55;1.90;;;0.80;;
16512;SDS011;8369;48.030;11.598;2023-04-24T04:44:21;0.97;;;0.80;;
16512;SDS011;8369;48.030;11.598;2023-04-24T04:46:49;0.70;;;0.70;;
16512;SDS011;8369;48.030;11.598;2023-04-24T04:49:19;0.80;;;0.80;;
16512;SDS011;8369;48.030;11.598;2023-04-24T04:51:47;0.67;;;0.67;;
16512;SDS011;8369;48.030;11.598;2023-04-24T04:54:16;4.10;;;0.83;;
16512;SDS011;8369;48.030;11.598;2023-04-24T04:56:43;1.10;;;0.87;;
16512;SDS011;8369;48.030;11.598;2023-04-24T04:59:16;0.60;;;0.60;;
16512;SDS011;8369;48.030;11.598;2023-04-24T05:01:43;0.80;;;0.80;;
16512;SDS011;8369;48.030;11.598;2023-04-24T05:04:12;0.70;;;0.70;;
16512;SDS011;8369;48.030;11.598;2023-04-24T05:06:39;0.60;;;0.60;;
16512;SDS011;8369;48.030;11.598;2023-04-24T05:09:06;1.00;;;0.90;;
16512;SDS011;8369;48.030;11.598;2023-04-24T05:14:52;1.87;;;1.20;;
16512;SDS011;8369;48.030;11.598;2023-04-24T05:17:22;1.10;;;1.00;;
16512;SDS011;8369;48.030;11.598;2023-04-24T05:19:52;0.87;;;0.87;;
16512;SDS011;8369;48.030;11.598;2023-04-24T05:22:19;0.80;;;0.80;;
16512;SDS011;8369;48.030;11.598;2023-04-24T05:24:46;0.90;;;0.90;;
16512;SDS011;8369;48.030;11.598;2023-04-24T05:27:16;1.00;;;1.00;;
16512;SDS011;8369;48.030;11.598;2023-04-24T05:29:44;0.80;;;0.80;;
16512;SDS011;8369;48.030;11.598;2023-04-24T05:32:10;0.80;;;0.80;;
16512;SDS011;8369;48.030;11.598;2023-04-24T05:37:37;0.80;;;0.80;;
16512;SDS011;8369;48.030;11.598;2023-04-24T05:40:04;1.30;;;0.70;;
16512;SDS011;8369;48.030;11.598;2023-04-24T05:42:31;0.70;;;0.70;;
16512;SDS011;8369;48.030;11.598;2023-04-24T05:44:58;0.80;;;0.80;;
16512;SDS011;8369;48.030;11.598;2023-04-24T05:47:25;0.67;;;0.67;;
16512;SDS011;8369;48.030;11.598;2023-04-24T05:49:52;0.97;;;0.83;;
16512;SDS011;8369;48.030;11.598;2023-04-24T05:52:18;0.73;;;0.70;;
16512;SDS011;8369;48.030;11.598;2023-04-24T05:54:45;1.20;;;0.80;;
16512;SDS011;8369;48.030;11.598;2023-04-24T05:57:11;0.80;;;0.80;;
16512;SDS011;8369;48.030;11.598;2023-04-24T05:59:39;2.43;;;0.70;;
16512;SDS011;8369;48.030;11.598;2023-04-24T06:02:07;1.13;;;0.93;;
16512;SDS011;8369;48.030;11.598;2023-04-24T06:04:33;1.00;;;0.90;;
16512;SDS011;8369;48.030;11.598;2023-04-24T06:07:01;2.73;;;1.30;;
16512;SDS011;8369;48.030;11.598;2023-04-24T06:09:28;1.07;;;0.90;;
16512;SDS011;8369;48.030;11.598;2023-04-24T06:11:56;0.70;;;0.70;;
16512;SDS011;8369;48.030;11.598;2023-04-24T06:14:24;1.27;;;1.00;;
16512;SDS011;8369;48.030;11.598;2023-04-24T06:16:51;0.90;;;0.73;;
16512;SDS011;8369;48.030;11.598;2023-04-24T06:19:27;0.90;;;0.90;;
16512;SDS011;8369;48.030;11.598;2023-04-24T06:21:54;0.63;;;0.63;;
16512;SDS011;8369;48.030;11.598;2023-04-24T06:24:21;1.63;;;0.83;;
16512;SDS011;8369;48.030;11.598;2023-04-24T06:26:47;0.70;;;0.70;;
16512;SDS011;8369;48.030;11.598;2023-04-24T06:29:15;0.90;;;0.83;;
16512;SDS011;8369;48.030;11.598;2023-04-24T06:31:43;0.80;;;0.80;;
16512;SDS011;8369;48.030;11.598;2023-04-24T06:34:10;0.83;;;0.83;;
16512;SDS011;8369;48.030;11.598;2023-04-24T06:36:37;0.67;;;0.67;;
16512;SDS011;8369;48.030;11.598;2023-04-24T06:39:04;1.17;;;1.03;;
16512;SDS011;8369;48.030;11.598;2023-04-24T06:41:30;0.80;;;0.80;;
16512;SDS011;8369;48.030;11.598;2023-04-24T06:43:56;0.60;;;0.60;;
16512;SDS011;8369;48.030;11.598;2023-04-24T06:46:22;1.23;;;0.63;;
16512;SDS011;8369;48.030;11.598;2023-04-24T06:48:51;3.27;;;0.90;;
16512;SDS011;8369;48.030;11.598;2023-04-24T06:51:21;0.60;;;0.60;;
16512;SDS011;8369;48.030;11.598;2023-04-24T06:53:48;0.93;;;0.70;;
16512;SDS011;8369;48.030;11.598;2023-04-24T06:56:14;0.47;;;0.47;;
16512;SDS011;8369;48.030;11.598;2023-04-24T06:58:40;0.60;;;0.60;;
16512;SDS011;8369;48.030;11.598;2023-04-24T07:01:07;0.53;;;0.53;;
16512;SDS011;8369;48.030;11.598;2023-04-24T07:03:33;0.80;;;0.80;;
16512;SDS011;8369;48.030;11.598;2023-04-24T07:05:59;0.70;;;0.70;;
16512;SDS011;8369;48.030;11.598;2023-04-24T07:08:25;0.40;;;0.40;;
16512;SDS011;8369;48.030;11.598;2023-04-24T07:10:51;1.50;;;0.50;;
16512;SDS011;8369;48.030;11.598;2023-04-24T07:13:17;0.80;;;0.53;;
16512;SDS011;8369;48.030;11.598;2023-04-24T07:15:43;3.40;;;0.70;;
16512;SDS011;8369;48.030;11.598;2023-04-24T07:18:11;0.50;;;0.50;;
16512;SDS011;8369;48.030;11.598;2023-04-24T07:20:39;0.60;;;0.60;;
16512;SDS011;8369;48.030;11.598;2023-04-24T07:23:04;0.60;;;0.60;;
16512;SDS011;8369;48.030;11.598;2023-04-24T07:25:30;0.90;;;0.90;;
16512;SDS011;8369;48.030;11.598;2023-04-24T07:27:56;0.57;;;0.40;;
16512;SDS011;8369;48.030;11.598;2023-04-24T07:30:26;0.50;;;0.50;;
16512;SDS011;8369;48.030;11.598;2023-04-24T07:32:54;0.50;;;0.50;;
16512;SDS011;8369;48.030;11.598;2023-04-24T07:35:20;0.50;;;0.50;;
16512;SDS011;8369;48.030;11.598;2023-04-24T07:37:46;0.40;;;0.40;;
16512;SDS011;8369;48.030;11.598;2023-04-24T07:40:16;0.93;;;0.90;;
16512;SDS011;8369;48.030;11.598;2023-04-24T07:42:42;1.40;;;0.70;;
16512;SDS011;8369;48.030;11.598;2023-04-24T07:45:09;0.63;;;0.63;;
16512;SDS011;8369;48.030;11.598;2023-04-24T07:47:36;0.67;;;0.67;;
16512;SDS011;8369;48.030;11.598;2023-04-24T07:50:04;0.70;;;0.70;;
16512;SDS011;8369;48.030;11.598;2023-04-24T07:52:31;0.67;;;0.67;;
16512;SDS011;8369;48.030;11.598;2023-04-24T07:54:58;0.70;;;0.70;;
16512;SDS011;8369;48.030;11.598;2023-04-24T07:57:26;0.93;;;0.70;;
16512;SDS011;8369;48.030;11.598;2023-04-24T07:59:52;0.50;;;0.50;;
16512;SDS011;8369;48.030;11.598;2023-04-24T08:02:19;1.63;;;0.70;;
16512;SDS011;8369;48.030;11.598;2023-04-24T08:04:52;2.10;;;0.63;;
16512;SDS011;8369;48.030;11.598;2023-04-24T08:07:20;0.70;;;0.70;;
16512;SDS011;8369;48.030;11.598;2023-04-24T08:09:47;0.50;;;0.50;;
16512;SDS011;8369;48.030;11.598;2023-04-24T08:12:13;10.60;;;0.97;;
16512;SDS011;8369;48.030;11.598;2023-04-24T08:14:41;0.60;;;0.60;;
16512;SDS011;8369;48.030;11.598;2023-04-24T08:17:08;1.47;;;1.30;;
16512;SDS011;8369;48.030;11.598;2023-04-24T08:19:34;0.67;;;0.67;;
16512;SDS011;8369;48.030;11.598;2023-04-24T08:22:01;0.40;;;0.40;;
16512;SDS011;8369;48.030;11.598;2023-04-24T08:24:29;0.70;;;0.70;;
16512;SDS011;8369;48.030;11.598;2023-04-24T08:26:56;0.70;;;0.70;;
16512;SDS011;8369;48.030;11.598;2023-04-24T08:29:23;0.50;;;0.50;;
16512;SDS011;8369;48.030;11.598;2023-04-24T08:31:50;1.37;;;0.73;;
16512;SDS011;8369;48.030;11.598;2023-04-24T08:34:16;0.70;;;0.70;;
16512;SDS011;8369;48.030;11.598;2023-04-24T08:36:44;0.60;;;0.60;;
16512;SDS011;8369;48.030;11.598;2023-04-24T08:39:19;0.70;;;0.70;;
16512;SDS011;8369;48.030;11.598;2023-04-24T08:41:46;0.57;;;0.57;;
16512;SDS011;8369;48.030;11.598;2023-04-24T08:44:14;0.50;;;0.50;;
16512;SDS011;8369;48.030;11.598;2023-04-24T08:46:42;0.77;;;0.77;;
16512;SDS011;8369;48.030;11.598;2023-04-24T08:49:13;2.97;;;0.80;;
16512;SDS011;8369;48.030;11.598;2023-04-24T08:51:43;1.00;;;1.00;;
16512;SDS011;8369;48.030;11.598;2023-04-24T08:54:12;0.80;;;0.80;;
16512;SDS011;8369;48.030;11.598;2023-04-24T08:56:39;1.00;;;1.00;;
16512;SDS011;8369;48.030;11.598;2023-04-24T08:59:08;1.57;;;1.00;;
16512;SDS011;8369;48.030;11.598;2023-04-24T09:01:34;0.90;;;0.90;;
16512;SDS011;8369;48.030;11.598;2023-04-24T09:04:04;1.10;;;1.00;;
16512;SDS011;8369;48.030;11.598;2023-04-24T09:06:34;2.13;;;1.17;;
16512;SDS011;8369;48.030;11.598;2023-04-24T09:09:04;1.03;;;1.03;;
16512;SDS011;8369;48.030;11.598;2023-04-24T09:11:30;1.17;;;1.10;;
16512;SDS011;8369;48.030;11.598;2023-04-24T09:13:58;1.20;;;1.10;;
16512;SDS011;8369;48.030;11.598;2023-04-24T09:16:25;1.87;;;1.30;;
16512;SDS011;8369;48.030;11.598;2023-04-24T09:18:52;1.10;;;1.00;;
16512;SDS011;8369;48.030;11.598;2023-04-24T09:21:20;1.10;;;1.00;;
16512;SDS011;8369;48.030;11.598;2023-04-24T09:23:57;1.30;;;1.10;;
16512;SDS011;8369;48.030;11.598;2023-04-24T09:26:30;1.30;;;1.20;;
16512;SDS011;8369;48.030;11.598;2023-04-24T09:28:59;1.53;;;1.30;;
16512;SDS011;8369;48.030;11.598;2023-04-24T09:31:29;1.23;;;1.13;;
16512;SDS011;8369;48.030;11.598;2023-04-24T09:36:34;1.43;;;1.10;;
16512;SDS011;8369;48.030;11.598;2023-04-24T09:39:05;1.20;;;1.10;;
16512;SDS011;8369;48.030;11.598;2023-04-24T09:41:44;1.30;;;0.97;;
16512;SDS011;8369;48.030;11.598;2023-04-24T09:44:25;1.20;;;1.00;;
16512;SDS011;8369;48.030;11.598;2023-04-24T09:46:56;1.40;;;1.23;;
16512;SDS011;8369;48.030;11.598;2023-04-24T09:49:24;1.13;;;1.10;;
16512;SDS011;8369;48.030;11.598;2023-04-24T09:52:06;1.00;;;1.00;;
16512;SDS011;8369;48.030;11.598;2023-04-24T09:54:34;1.70;;;1.10;;
16512;SDS011;8369;48.030;11.598;2023-04-24T09:57:04;1.30;;;1.20;;
16512;SDS011;8369;48.030;11.598;2023-04-24T09:59:33;1.33;;;1.23;;
16512;SDS011;8369;48.030;11.598;2023-04-24T10:02:00;3.13;;;1.27;;
16512;SDS011;8369;48.030;11.598;2023-04-24T10:04:26;1.30;;;1.20;;
16512;SDS011;8369;48.030;11.598;2023-04-24T10:06:56;1.43;;;1.27;;
16512;SDS011;8369;48.030;11.598;2023-04-24T10:09:24;1.93;;;1.17;;
16512;SDS011;8369;48.030;11.598;2023-04-24T10:11:52;1.90;;;1.27;;
16512;SDS011;8369;48.030;11.598;2023-04-24T10:14:21;1.13;;;1.03;;
16512;SDS011;8369;48.030;11.598;2023-04-24T10:16:48;1.30;;;1.20;;
16512;SDS011;8369;48.030;11.598;2023-04-24T10:19:15;1.20;;;1.10;;
16512;SDS011;8369;48.030;11.598;2023-04-24T10:21:44;2.03;;;1.10;;
16512;SDS011;8369;48.030;11.598;2023-04-24T10:24:14;1.23;;;1.07;;
16512;SDS011;8369;48.030;11.598;2023-04-24T10:26:42;3.37;;;1.30;;
16512;SDS011;8369;48.030;11.598;2023-04-24T10:29:11;1.33;;;1.20;;
16512;SDS011;8369;48.030;11.598;2023-04-24T10:31:40;1.20;;;1.10;;
16512;SDS011;8369;48.030;11.598;2023-04-24T10:34:07;1.47;;;1.37;;
16512;SDS011;8369;48.030;11.598;2023-04-24T10:36:35;1.07;;;1.07;;
16512;SDS011;8369;48.030;11.598;2023-04-24T10:39:06;1.93;;;1.30;;
16512;SDS011;8369;48.030;11.598;2023-04-24T10:41:39;1.60;;;1.17;;
16512;SDS011;8369;48.030;11.598;2023-04-24T10:44:13;2.63;;;2.23;;
16512;SDS011;8369;48.030;11.598;2023-04-24T10:46:44;1.80;;;1.40;;
16512;SDS011;8369;48.030;11.598;2023-04-24T10:49:14;6.23;;;1.60;;
16512;SDS011;8369;48.030;11.598;2023-04-24T10:54:29;4.07;;;1.30;;
16512;SDS011;8369;48.030;11.598;2023-04-24T11:02:40;1.63;;;0.70;;
16512;SDS011;8369;48.030;11.598;2023-04-24T11:05:14;1.47;;;0.90;;
16512;SDS011;8369;48.030;11.598;2023-04-24T11:10:40;1.67;;;1.10;;
16512;SDS011;8369;48.030;11.598;2023-04-24T11:13:10;1.10;;;0.90;;
16512;SDS011;8369;48.030;11.598;2023-04-24T11:15:46;0.70;;;0.70;;
16512;SDS011;8369;48.030;11.598;2023-04-24T11:18:51;0.70;;;0.70;;
16512;SDS011;8369;48.030;11.598;2023-04-24T11:21:22;1.00;;;1.00;;
16512;SDS011;8369;48.030;11.598;2023-04-24T11:23:48;0.90;;;0.90;;
16512;SDS011;8369;48.030;11.598;2023-04-24T11:26:18;1.03;;;1.00;;
16512;SDS011;8369;48.030;11.598;2023-04-24T11:28:47;1.87;;;1.10;;
16512;SDS011;8369;48.030;11.598;2023-04-24T11:34:15;1.33;;;1.00;;
16512;SDS011;8369;48.030;11.598;2023-04-24T11:36:45;1.93;;;1.10;;
16512;SDS011;8369;48.030;11.598;2023-04-24T11:39:13;2.23;;;1.30;;
16512;SDS011;8369;48.030;11.598;2023-04-24T11:41:41;1.40;;;1.20;;
16512;SDS011;8369;48.030;11.598;2023-04-24T11:44:08;1.30;;;1.20;;
16512;SDS011;8369;48.030;11.598;2023-04-24T11:46:34;1.00;;;1.00;;
16512;SDS011;8369;48.030;11.598;2023-04-24T11:49:03;1.47;;;1.37;;
16512;SDS011;8369;48.030;11.598;2023-04-24T11:51:28;1.13;;;1.10;;
16512;SDS011;8369;48.030;11.598;2023-04-24T11:53:55;1.30;;;0.90;;
16512;SDS011;8369;48.030;11.598;2023-04-24T11:56:22;0.83;;;0.83;;
16512;SDS011;8369;48.030;11.598;2023-04-24T11:58:51;1.17;;;1.17;;
16512;SDS011;8369;48.030;11.598;2023-04-24T12:01:19;1.30;;;1.17;;
16512;SDS011;8369;48.030;11.598;2023-04-24T12:03:50;4.07;;;1.30;;
16512;SDS011;8369;48.030;11.598;2023-04-24T12:06:24;1.20;;;1.10;;
16512;SDS011;8369;48.030;11.598;2023-04-24T12:08:52;1.33;;;1.10;;
16512;SDS011;8369;48.030;11.598;2023-04-24T12:11:20;2.87;;;1.30;;
16512;SDS011;8369;48.030;11.598;2023-04-24T12:13:46;1.50;;;1.30;;
16512;SDS011;8369;48.030;11.598;2023-04-24T12:16:12;1.13;;;1.10;;
16512;SDS011;8369;48.030;11.598;2023-04-24T12:18:42;1.43;;;1.33;;
16512;SDS011;8369;48.030;11.598;2023-04-24T12:21:21;1.40;;;1.20;;
16512;SDS011;8369;48.030;11.598;2023-04-24T12:23:50;1.60;;;1.30;;
16512;SDS011;8369;48.030;11.598;2023-04-24T12:26:19;1.87;;;1.50;;
16512;SDS011;8369;48.030;11.598;2023-04-24T12:28:47;1.73;;;1.30;;
16512;SDS011;8369;48.030;11.598;2023-04-24T12:31:14;1.40;;;1.30;;
16512;SDS011;8369;48.030;11.598;2023-04-24T12:33:41;1.33;;;1.20;;
16512;SDS011;8369;48.030;11.598;2023-04-24T12:36:11;1.70;;;1.60;;
16512;SDS011;8369;48.030;11.598;2023-04-24T12:38:38;2.07;;;1.50;;
16512;SDS011;8369;48.030;11.598;2023-04-24T12:41:09;3.63;;;1.90;;
16512;SDS011;8369;48.030;11.598;2023-04-24T12:43:36;1.77;;;1.40;;
16512;SDS011;8369;48.030;11.598;2023-04-24T12:46:03;1.73;;;1.50;;
16512;SDS011;8369;48.030;11.598;2023-04-24T12:48:44;3.97;;;1.50;;
16512;SDS011;8369;48.030;11.598;2023-04-24T12:51:10;1.60;;;1.50;;
16512;SDS011;8369;48.030;11.598;2023-04-24T12:53:36;3.03;;;1.47;;
16512;SDS011;8369;48.030;11.598;2023-04-24T12:56:02;3.47;;;1.70;;
16512;SDS011;8369;48.030;11.598;2023-04-24T12:58:28;1.33;;;1.23;;
16512;SDS011;8369;48.030;11.598;2023-04-24T13:00:54;1.40;;;1.30;;
16512;SDS011;8369;48.030;11.598;2023-04-24T13:03:20;2.27;;;1.47;;
16512;SDS011;8369;48.030;11.598;2023-04-24T13:05:47;1.50;;;1.40;;
16512;SDS011;8369;48.030;11.598;2023-04-24T13:08:13;1.60;;;1.50;;
16512;SDS011;8369;48.030;11.598;2023-04-24T13:10:39;7.57;;;1.60;;
16512;SDS011;8369;48.030;11.598;2023-04-24T13:13:05;1.97;;;1.50;;
16512;SDS011;8369;48.030;11.598;2023-04-24T13:15:31;2.57;;;1.60;;
16512;SDS011;8369;48.030;11.598;2023-04-24T13:17:57;1.60;;;1.47;;
16512;SDS011;8369;48.030;11.598;2023-04-24T13:20:23;1.90;;;1.43;;
16512;SDS011;8369;48.030;11.598;2023-04-24T13:22:49;1.70;;;1.60;;
16512;SDS011;8369;48.030;11.598;2023-04-24T13:25:15;1.50;;;1.40;;
16512;SDS011;8369;48.030;11.598;2023-04-24T13:27:42;1.43;;;1.30;;
16512;SDS011;8369;48.030;11.598;2023-04-24T13:30:08;2.87;;;1.50;;
16512;SDS011;8369;48.030;11.598;2023-04-24T13:32:34;2.20;;;1.40;;
16512;SDS011;8369;48.030;11.598;2023-04-24T13:35:00;1.60;;;1.50;;
16512;SDS011;8369;48.030;11.598;2023-04-24T13:37:27;2.50;;;1.30;;
16512;SDS011;8369;48.030;11.598;2023-04-24T13:39:53;2.20;;;1.60;;
16512;SDS011;8369;48.030;11.598;2023-04-24T13:42:19;2.03;;;1.50;;
16512;SDS011;8369;48.030;11.598;2023-04-24T13:44:45;1.50;;;1.40;;
16512;SDS011;8369;48.030;11.598;2023-04-24T13:47:11;2.93;;;1.53;;
16512;SDS011;8369;48.030;11.598;2023-04-24T13:49:37;2.17;;;1.60;;
16512;SDS011;8369;48.030;11.598;2023-04-24T13:52:03;1.50;;;1.40;;
16512;SDS011;8369;48.030;11.598;2023-04-24T13:54:29;1.73;;;1.60;;
16512;SDS011;8369;48.030;11.598;2023-04-24T13:56:57;1.40;;;1.30;;
16512;SDS011;8369;48.030;11.598;2023-04-24T13:59:23;1.77;;;1.60;;
16512;SDS011;8369;48.030;11.598;2023-04-24T14:01:49;1.70;;;1.60;;
16512;SDS011;8369;48.030;11.598;2023-04-24T14:04:15;1.57;;;1.47;;
16512;SDS011;8369;48.030;11.598;2023-04-24T14:06:41;3.10;;;1.90;;
16512;SDS011;8369;48.030;11.598;2023-04-24T14:09:06;2.67;;;1.80;;
16512;SDS011;8369;48.030;11.598;2023-04-24T14:11:33;3.00;;;1.80;;
16512;SDS011;8369;48.030;11.598;2023-04-24T14:13:59;2.00;;;1.63;;
16512;SDS011;8369;48.030;11.598;2023-04-24T14:16:26;2.27;;;1.47;;
16512;SDS011;8369;48.030;11.598;2023-04-24T14:18:54;2.67;;;2.03;;
16512;SDS011;8369;48.030;11.598;2023-04-24T14:21:20;1.60;;;1.40;;
16512;SDS011;8369;48.030;11.598;2023-04-24T14:23:46;2.37;;;1.77;;
16512;SDS011;8369;48.030;11.598;2023-04-24T14:26:12;2.70;;;1.80;;
16512;SDS011;8369;48.030;11.598;2023-04-24T14:28:39;2.30;;;1.37;;
16512;SDS011;8369;48.030;11.598;2023-04-24T14:31:05;2.87;;;1.70;;
16512;SDS011;8369;48.030;11.598;2023-04-24T14:33:33;2.83;;;1.60;;
16512;SDS011;8369;48.030;11.598;2023-04-24T14:35:59;2.03;;;1.50;;
16512;SDS011;8369;48.030;11.598;2023-04-24T14:38:27;1.50;;;1.40;;
16512;SDS011;8369;48.030;11.598;2023-04-24T14:40:55;1.90;;;1.50;;
16512;SDS011;8369;48.030;11.598;2023-04-24T14:43:22;1.40;;;1.30;;
16512;SDS011;8369;48.030;11.598;2023-04-24T14:45:49;5.23;;;1.60;;
16512;SDS011;8369;48.030;11.598;2023-04-24T14:48:15;2.00;;;1.80;;
16512;SDS011;8369;48.030;11.598;2023-04-24T14:50:43;2.10;;;1.80;;
16512;SDS011;8369;48.030;11.598;2023-04-24T14:53:10;1.67;;;1.40;;
16512;SDS011;8369;48.030;11.598;2023-04-24T14:55:37;1.50;;;1.40;;
16512;SDS011;8369;48.030;11.598;2023-04-24T14:58:03;2.03;;;1.50;;
16512;SDS011;8369;48.030;11.598;2023-04-24T15:00:30;2.93;;;1.50;;
16512;SDS011;8369;48.030;11.598;2023-04-24T15:02:56;2.47;;;1.70;;
16512;SDS011;8369;48.030;11.598;2023-04-24T15:05:23;2.63;;;1.60;;
16512;SDS011;8369;48.030;11.598;2023-04-24T15:07:50;2.40;;;1.60;;
16512;SDS011;8369;48.030;11.598;2023-04-24T15:10:16;2.57;;;1.67;;
16512;SDS011;8369;48.030;11.598;2023-04-24T15:12:43;1.80;;;1.40;;
16512;SDS011;8369;48.030;11.598;2023-04-24T15:15:09;3.00;;;1.67;;
16512;SDS011;8369;48.030;11.598;2023-04-24T15:17:35;2.10;;;1.70;;